Aviation Digital Data Service (ADDS)

Output produced by METARs form (2241 UTC 21 November 2017)
found at http://aviationweather.gov/adds/metars/
 
KMSY 212153Z 06004KT 10SM FEW040 BKN060 BKN150 BKN250 21/16 A2996 RMK AO2 SLP147 T02110161